createdAt,value
2018-04-17T00:02:17.009Z,8.90
2018-04-17T00:04:45.434Z,8.90
2018-04-17T00:07:13.068Z,8.80
2018-04-17T00:09:40.701Z,8.80
2018-04-17T00:12:09.060Z,8.80
2018-04-17T00:14:36.712Z,8.80
2018-04-17T00:17:04.434Z,8.80
2018-04-17T00:19:32.073Z,8.80
2018-04-17T00:21:59.742Z,8.80
2018-04-17T00:24:28.169Z,8.80
2018-04-17T00:26:55.796Z,8.70
2018-04-17T00:29:23.401Z,8.70
2018-04-17T00:31:51.085Z,8.70
2018-04-17T00:34:18.738Z,8.70
2018-04-17T00:36:46.374Z,8.60
2018-04-17T00:39:14.001Z,8.60
2018-04-17T00:41:41.621Z,8.60
2018-04-17T00:44:09.308Z,8.50
2018-04-17T00:46:36.917Z,8.50
2018-04-17T00:49:04.562Z,8.50
2018-04-17T00:51:32.202Z,8.60
2018-04-17T00:54:03.301Z,8.60
2018-04-17T00:56:30.973Z,8.60
2018-04-17T00:58:58.597Z,8.50
2018-04-17T01:01:26.281Z,8.50
2018-04-17T01:03:53.924Z,8.40
2018-04-17T01:06:22.369Z,8.40
2018-04-17T01:08:50.062Z,8.40
2018-04-17T01:11:17.738Z,8.30
2018-04-17T01:13:45.362Z,8.30
2018-04-17T01:16:13.731Z,8.30
2018-04-17T01:18:41.441Z,8.30
2018-04-17T01:21:09.078Z,8.20
2018-04-17T01:23:36.696Z,8.20
2018-04-17T01:26:04.369Z,8.10
2018-04-17T01:28:32.010Z,8.10
2018-04-17T01:30:59.669Z,8.10
2018-04-17T01:33:27.312Z,8.10
2018-04-17T01:35:55.021Z,8.10
2018-04-17T01:38:22.675Z,8.10
2018-04-17T01:40:51.092Z,8.00
2018-04-17T01:43:18.745Z,8.00
2018-04-17T01:45:46.370Z,8.00
2018-04-17T01:48:14.030Z,7.90
2018-04-17T01:50:41.629Z,7.90
2018-04-17T01:53:10.085Z,7.80
2018-04-17T01:55:37.749Z,7.80
2018-04-17T01:58:05.449Z,7.80
2018-04-17T02:00:33.117Z,7.80
2018-04-17T02:03:00.744Z,7.80
2018-04-17T02:05:28.402Z,7.80
2018-04-17T02:07:56.014Z,7.80
2018-04-17T02:10:23.665Z,7.80
2018-04-17T02:12:51.313Z,7.80
2018-04-17T02:15:18.974Z,7.80
2018-04-17T02:17:46.639Z,7.80
2018-04-17T02:20:14.330Z,7.80
2018-04-17T02:22:41.948Z,7.80
2018-04-17T02:25:09.640Z,7.80
2018-04-17T02:27:37.278Z,7.70
2018-04-17T02:30:04.969Z,7.70
2018-04-17T02:35:25.414Z,7.70
2018-04-17T02:37:53.665Z,7.70
2018-04-17T02:40:21.330Z,7.60
2018-04-17T02:42:48.995Z,7.60
2018-04-17T02:45:16.639Z,7.60
2018-04-17T02:47:44.285Z,7.50
2018-04-17T02:50:11.913Z,7.50
2018-04-17T02:52:40.331Z,7.40
2018-04-17T02:55:08.773Z,7.40
2018-04-17T02:57:36.427Z,7.40
2018-04-17T03:00:04.893Z,7.30
2018-04-17T03:02:32.495Z,7.30
2018-04-17T03:05:00.183Z,7.30
2018-04-17T03:07:27.813Z,7.30
2018-04-17T03:09:55.500Z,7.30
2018-04-17T03:12:23.128Z,7.30
2018-04-17T03:14:50.833Z,7.20
2018-04-17T03:17:19.053Z,7.20
2018-04-17T03:19:47.480Z,7.30
2018-04-17T03:22:15.153Z,7.20
2018-04-17T03:24:43.583Z,7.30
2018-04-17T03:27:11.276Z,7.20
2018-04-17T03:29:38.892Z,7.20
2018-04-17T03:32:06.570Z,7.20
2018-04-17T03:34:34.266Z,7.20
2018-04-17T03:37:02.435Z,7.20
2018-04-17T03:39:30.066Z,7.20
2018-04-17T03:41:57.701Z,7.20
2018-04-17T03:44:25.369Z,7.20
2018-04-17T03:46:53.805Z,7.20
2018-04-17T03:49:21.495Z,7.20
2018-04-17T03:51:49.133Z,7.20
2018-04-17T03:54:16.778Z,7.20
2018-04-17T03:56:44.405Z,7.20
2018-04-17T03:59:12.067Z,7.10
2018-04-17T04:01:39.693Z,7.10
2018-04-17T04:04:08.147Z,7.10
2018-04-17T04:06:35.790Z,7.00
2018-04-17T04:09:04.277Z,7.00
2018-04-17T04:11:31.942Z,7.00
2018-04-17T04:13:59.573Z,7.00
2018-04-17T04:16:39.965Z,7.00
2018-04-17T04:19:19.419Z,7.00
2018-04-17T04:21:59.660Z,7.00
2018-04-17T04:24:39.296Z,7.00
2018-04-17T04:27:06.978Z,7.00
2018-04-17T04:29:34.603Z,7.00
2018-04-17T04:32:03.056Z,7.00
2018-04-17T04:34:31.461Z,7.00
2018-04-17T04:36:59.886Z,6.90
2018-04-17T04:39:30.690Z,6.90
2018-04-17T04:41:59.085Z,6.90
2018-04-17T04:44:26.720Z,6.90
2018-04-17T04:46:55.084Z,6.90
2018-04-17T04:49:23.521Z,6.90
2018-04-17T04:51:51.924Z,6.90
2018-04-17T04:54:20.330Z,6.90
2018-04-17T04:56:48.792Z,6.90
2018-04-17T04:59:16.417Z,6.90
2018-04-17T05:01:44.873Z,6.90
2018-04-17T05:04:12.522Z,6.90
2018-04-17T05:06:40.933Z,6.90
2018-04-17T05:09:08.555Z,6.90
2018-04-17T05:11:36.979Z,6.90
2018-04-17T05:14:04.669Z,6.90
2018-04-17T05:16:32.326Z,6.90
2018-04-17T05:18:59.946Z,6.90
2018-04-17T05:21:27.609Z,7.00
2018-04-17T05:23:55.302Z,7.00
2018-04-17T05:26:23.737Z,7.10
2018-04-17T05:28:51.450Z,7.10
2018-04-17T05:31:19.854Z,7.20
2018-04-17T05:33:48.276Z,7.20
2018-04-17T05:36:15.923Z,7.20
2018-04-17T05:38:43.561Z,7.30
2018-04-17T05:41:11.173Z,7.40
2018-04-17T05:43:38.797Z,7.50
2018-04-17T05:46:07.161Z,7.60
2018-04-17T05:48:34.814Z,7.60
2018-04-17T05:51:02.449Z,7.70
2018-04-17T05:53:30.133Z,7.80
2018-04-17T05:55:57.888Z,7.90
2018-04-17T05:58:25.494Z,8.10
2018-04-17T06:00:53.137Z,8.20
2018-04-17T06:03:21.577Z,8.40
2018-04-17T06:05:49.258Z,8.40
2018-04-17T06:08:16.922Z,8.60
2018-04-17T06:10:44.554Z,8.70
2018-04-17T06:13:12.203Z,8.80
2018-04-17T06:15:39.870Z,9.00
2018-04-17T06:18:08.283Z,9.30
2018-04-17T06:20:35.981Z,9.20
2018-04-17T06:23:03.629Z,9.40
2018-04-17T06:25:32.055Z,9.70
2018-04-17T06:27:59.688Z,9.60
2018-04-17T06:30:27.339Z,9.80
2018-04-17T06:32:54.984Z,9.90
2018-04-17T06:35:22.631Z,10.10
2018-04-17T06:37:50.312Z,10.20
2018-04-17T06:40:17.934Z,10.40
2018-04-17T06:42:45.610Z,10.50
2018-04-17T06:45:13.260Z,10.70
2018-04-17T06:47:41.723Z,10.90
2018-04-17T06:50:09.387Z,10.90
2018-04-17T06:52:37.036Z,11.00
2018-04-17T06:55:04.743Z,11.20
2018-04-17T06:57:32.821Z,11.30
2018-04-17T07:00:01.274Z,11.60
2018-04-17T07:02:28.930Z,11.50
2018-04-17T07:04:56.590Z,11.70
2018-04-17T07:07:25.001Z,12.00
2018-04-17T07:09:53.431Z,12.10
2018-04-17T07:12:21.053Z,12.10
2018-04-17T07:14:48.714Z,12.20
2018-04-17T07:17:16.373Z,12.30
2018-04-17T07:19:44.013Z,12.50
2018-04-17T07:22:11.655Z,12.60
2018-04-17T07:24:39.285Z,12.80
2018-04-17T07:27:06.953Z,12.90
2018-04-17T07:29:34.588Z,13.00
2018-04-17T07:32:03.024Z,13.30
2018-04-17T07:34:30.658Z,13.30
2018-04-17T07:37:08.190Z,13.40
2018-04-17T07:39:35.879Z,13.60
2018-04-17T07:42:03.513Z,13.80
2018-04-17T07:44:31.170Z,14.00
2018-04-17T07:47:11.398Z,14.30
2018-04-17T07:49:39.829Z,14.40
2018-04-17T07:52:07.441Z,14.40
2018-04-17T07:54:35.882Z,14.70
2018-04-17T07:57:03.517Z,14.70
2018-04-17T07:59:31.169Z,14.80
2018-04-17T08:01:58.802Z,15.00
2018-04-17T08:04:27.316Z,15.20
2018-04-17T08:06:54.986Z,15.20
2018-04-17T08:09:23.378Z,15.50
2018-04-17T08:11:51.110Z,15.50
2018-04-17T08:14:19.514Z,15.90
2018-04-17T08:16:47.157Z,15.80
2018-04-17T08:19:14.814Z,16.00
2018-04-17T08:21:42.466Z,16.10
2018-04-17T08:24:10.130Z,16.30
2018-04-17T08:26:38.549Z,16.60
2018-04-17T08:29:06.249Z,16.50
2018-04-17T08:31:33.893Z,16.80
2018-04-17T08:34:01.642Z,16.90
2018-04-17T08:36:29.308Z,17.10
2018-04-17T08:38:56.938Z,17.20
2018-04-17T08:41:24.606Z,17.40
2018-04-17T08:43:52.265Z,17.50
2018-04-17T08:46:19.921Z,17.70
2018-04-17T08:48:47.567Z,17.90
2018-04-17T08:51:15.263Z,18.10
2018-04-17T08:53:42.902Z,18.20
2018-04-17T08:56:11.373Z,18.60
2018-04-17T08:58:39.060Z,18.60
2018-04-17T09:01:06.709Z,18.80
2018-04-17T09:03:34.375Z,19.00
2018-04-17T09:06:02.797Z,19.30
2018-04-17T09:08:30.459Z,19.20
2018-04-17T09:10:58.882Z,19.50
2018-04-17T09:13:26.523Z,19.50
2018-04-17T09:15:54.168Z,19.60
2018-04-17T09:18:21.826Z,19.80
2018-04-17T09:20:50.207Z,20.20
2018-04-17T09:23:17.907Z,20.20
2018-04-17T09:25:46.403Z,20.60
2018-04-17T09:28:14.030Z,20.60
2018-04-17T09:30:41.702Z,20.80
2018-04-17T09:33:09.329Z,21.00
2018-04-17T09:35:36.992Z,21.20
2018-04-17T09:38:04.663Z,21.30
2018-04-17T09:40:32.334Z,21.40
2018-04-17T09:43:00.742Z,21.40
2018-04-17T09:45:29.179Z,21.50
2018-04-17T09:47:56.873Z,21.50
2018-04-17T09:50:24.497Z,21.50
2018-04-17T09:52:52.174Z,21.60
2018-04-17T09:55:19.824Z,21.70
2018-04-17T09:57:47.494Z,21.80
2018-04-17T10:00:15.193Z,22.00
2018-04-17T10:02:42.901Z,22.10
2018-04-17T10:05:10.552Z,22.10
2018-04-17T10:07:38.209Z,22.10
2018-04-17T10:10:05.853Z,22.10
2018-04-17T10:12:33.494Z,22.20
2018-04-17T10:15:01.927Z,22.30
2018-04-17T10:17:29.560Z,22.30
2018-04-17T10:19:57.235Z,22.40
2018-04-17T10:22:24.881Z,22.50
2018-04-17T10:24:52.551Z,22.60
2018-04-17T10:27:20.959Z,23.00
2018-04-17T10:29:49.407Z,23.10
2018-04-17T10:32:17.110Z,23.00
2018-04-17T10:34:44.754Z,23.00
2018-04-17T10:37:12.405Z,23.00
2018-04-17T10:39:40.080Z,22.90
2018-04-17T10:42:07.778Z,23.00
2018-04-17T10:44:35.422Z,22.80
2018-04-17T10:47:03.102Z,22.70
2018-04-17T10:49:30.742Z,22.60
2018-04-17T10:51:58.378Z,22.70
2018-04-17T10:54:26.081Z,22.70
2018-04-17T10:56:53.749Z,22.80
2018-04-17T10:59:21.409Z,23.00
2018-04-17T11:01:49.801Z,22.80
2018-04-17T11:04:18.236Z,22.90
2018-04-17T11:06:45.938Z,22.80
2018-04-17T11:09:13.575Z,23.00
2018-04-17T11:11:41.224Z,23.00
2018-04-17T11:14:08.851Z,23.10
2018-04-17T11:16:36.525Z,22.80
2018-04-17T11:19:04.193Z,22.60
2018-04-17T11:21:31.827Z,22.60
2018-04-17T11:24:00.249Z,22.80
2018-04-17T11:26:27.861Z,22.80
2018-04-17T11:28:55.537Z,22.90
2018-04-17T11:31:23.183Z,23.00
2018-04-17T11:33:50.817Z,23.10
2018-04-17T11:36:18.477Z,23.10
2018-04-17T11:38:46.122Z,23.20
2018-04-17T11:41:13.763Z,23.40
2018-04-17T11:43:41.381Z,23.50
2018-04-17T11:46:09.038Z,23.60
2018-04-17T11:48:36.677Z,23.80
2018-04-17T11:51:04.305Z,23.90
2018-04-17T11:53:31.951Z,24.10
2018-04-17T11:55:59.590Z,24.10
2018-04-17T11:58:27.258Z,24.20
2018-04-17T12:00:54.977Z,24.00
2018-04-17T12:03:22.658Z,24.00
2018-04-17T12:05:50.341Z,24.00
2018-04-17T12:08:17.953Z,23.90
2018-04-17T12:10:45.617Z,23.80
2018-04-17T12:13:13.277Z,23.80
2018-04-17T12:15:41.662Z,24.10
2018-04-17T12:18:10.076Z,24.30
2018-04-17T12:20:38.468Z,24.50
2018-04-17T12:23:06.153Z,24.50
2018-04-17T12:25:34.193Z,24.80
2018-04-17T12:28:01.812Z,25.00
2018-04-17T12:30:29.436Z,25.30
2018-04-17T12:32:57.847Z,25.50
2018-04-17T12:35:25.512Z,25.40
2018-04-17T12:37:53.932Z,24.90
2018-04-17T12:40:22.340Z,24.50
2018-04-17T12:42:50.801Z,24.20
2018-04-17T12:45:18.646Z,24.20
2018-04-17T12:47:46.302Z,23.80
2018-04-17T12:50:13.986Z,23.70
2018-04-17T12:52:41.606Z,23.90
2018-04-17T12:55:09.278Z,24.10
2018-04-17T12:57:37.683Z,24.30
2018-04-17T13:00:05.392Z,24.30
2018-04-17T13:02:33.045Z,24.50
2018-04-17T13:05:00.663Z,24.70
2018-04-17T13:07:28.317Z,24.80
2018-04-17T13:09:56.778Z,24.60
2018-04-17T13:12:24.432Z,24.60
2018-04-17T13:14:52.060Z,24.80
2018-04-17T13:17:20.492Z,25.10
2018-04-17T13:19:48.128Z,25.10
2018-04-17T13:22:16.755Z,25.30
2018-04-17T13:24:44.424Z,25.30
2018-04-17T13:27:12.117Z,25.40
2018-04-17T13:29:39.810Z,25.50
2018-04-17T13:32:07.433Z,25.50
2018-04-17T13:34:35.078Z,25.50
2018-04-17T13:37:02.737Z,25.50
2018-04-17T13:39:31.171Z,25.40
2018-04-17T13:41:59.116Z,25.30
2018-04-17T13:44:26.773Z,25.20
2018-04-17T13:46:54.895Z,25.30
2018-04-17T13:49:22.558Z,25.40
2018-04-17T13:51:50.455Z,25.50
2018-04-17T13:54:18.922Z,25.60
2018-04-17T13:56:46.676Z,25.60
2018-04-17T13:59:15.266Z,25.40
2018-04-17T14:01:42.918Z,25.40
2018-04-17T14:04:10.605Z,25.30
2018-04-17T14:06:38.857Z,24.90
2018-04-17T14:09:06.524Z,24.60
2018-04-17T14:11:34.251Z,24.50
2018-04-17T14:14:02.674Z,24.50
2018-04-17T14:16:30.543Z,24.50
2018-04-17T14:18:58.225Z,24.60
2018-04-17T14:21:26.649Z,24.60
2018-04-17T14:23:54.490Z,24.60
2018-04-17T14:26:22.185Z,24.60
2018-04-17T14:28:56.224Z,24.60
2018-04-17T14:31:24.213Z,24.50
2018-04-17T14:33:51.841Z,24.50
2018-04-17T14:36:19.720Z,24.50
2018-04-17T14:38:47.668Z,24.50
2018-04-17T14:41:15.568Z,24.50
2018-04-17T14:43:43.612Z,24.50
2018-04-17T14:46:11.510Z,24.60
2018-04-17T14:48:39.494Z,24.60
2018-04-17T14:54:18.990Z,24.50
2018-04-17T14:56:46.931Z,24.50
2018-04-17T14:59:14.834Z,24.40
2018-04-17T15:01:42.784Z,24.40
2018-04-17T15:04:10.649Z,24.30
2018-04-17T15:06:39.592Z,24.30
2018-04-17T15:09:07.553Z,24.30
2018-04-17T15:11:36.509Z,24.20
2018-04-17T15:14:04.421Z,24.20
2018-04-17T15:16:32.372Z,24.10
2018-04-17T15:19:00.278Z,24.10
2018-04-17T15:21:28.252Z,24.10
2018-04-17T15:23:56.239Z,24.10
2018-04-17T15:26:24.909Z,24.10
2018-04-17T15:28:52.815Z,24.10
2018-04-17T15:31:20.673Z,24.10
2018-04-17T15:33:48.624Z,24.00
2018-04-17T15:36:17.105Z,23.90
2018-04-17T15:38:45.875Z,23.80
2018-04-17T15:41:13.786Z,23.80
2018-04-17T15:43:42.458Z,23.60
2018-04-17T15:46:10.325Z,23.60
2018-04-17T15:48:38.236Z,23.50
2018-04-17T15:51:06.922Z,23.20
2018-04-17T15:53:34.822Z,23.20
2018-04-17T15:56:02.776Z,23.00
2018-04-17T15:58:30.702Z,22.80
2018-04-17T16:00:58.639Z,22.60
2018-04-17T16:03:26.545Z,22.30
2018-04-17T16:05:54.503Z,22.10
2018-04-17T16:08:22.404Z,21.90
2018-04-17T16:10:50.392Z,21.70
2018-04-17T16:13:19.023Z,21.50
2018-04-17T16:15:47.121Z,21.40
2018-04-17T16:18:15.541Z,21.40
2018-04-17T16:20:43.474Z,21.40
2018-04-17T16:23:11.433Z,21.40
2018-04-17T16:25:39.351Z,21.40
2018-04-17T16:28:07.293Z,21.40
2018-04-17T16:30:35.228Z,21.50
2018-04-17T16:33:03.171Z,21.50
2018-04-17T16:35:31.077Z,21.50
2018-04-17T16:37:59.006Z,21.50
2018-04-17T16:40:27.002Z,21.40
2018-04-17T16:42:54.884Z,21.40
2018-04-17T16:45:22.809Z,21.30
2018-04-17T16:47:50.738Z,21.20
2018-04-17T16:50:19.721Z,21.00
2018-04-17T16:52:48.378Z,21.00
2018-04-17T16:55:17.383Z,20.90
2018-04-17T16:57:46.681Z,20.70
2018-04-17T17:00:14.609Z,20.70
2018-04-17T17:03:07.814Z,20.60
2018-04-17T17:05:36.524Z,20.50
2018-04-17T17:08:04.440Z,20.40
2018-04-17T17:10:32.403Z,20.40
2018-04-17T17:13:00.333Z,20.30
2018-04-17T17:15:28.213Z,20.20
2018-04-17T17:17:56.128Z,20.10
2018-04-17T17:20:24.816Z,19.90
2018-04-17T17:22:53.534Z,19.80
2018-04-17T17:25:21.177Z,19.80
2018-04-17T17:27:49.576Z,19.60
2018-04-17T17:30:17.997Z,19.50
2018-04-17T17:32:45.641Z,19.50
2018-04-17T17:35:13.345Z,19.40
2018-04-17T17:37:41.006Z,19.30
2018-04-17T17:40:30.400Z,19.20
2018-04-17T17:42:58.721Z,19.10
2018-04-17T17:45:26.478Z,18.90
2018-04-17T17:48:09.071Z,18.70
2018-04-17T17:50:36.751Z,18.70
2018-04-17T17:53:04.658Z,18.60
2018-04-17T17:55:32.415Z,18.40
2018-04-17T17:58:00.835Z,18.20
2018-04-17T18:00:28.508Z,18.20
2018-04-17T18:02:56.926Z,17.90
2018-04-17T18:05:24.537Z,17.90
2018-04-17T18:07:52.198Z,17.80
2018-04-17T18:10:20.639Z,17.50
2018-04-17T18:12:48.289Z,17.50
2018-04-17T18:15:15.986Z,17.40
2018-04-17T18:18:08.337Z,17.20
2018-04-17T18:20:35.977Z,17.10
2018-04-17T18:23:03.609Z,17.00
2018-04-17T18:25:31.293Z,16.90
2018-04-17T18:27:58.952Z,16.80
2018-04-17T18:30:26.626Z,16.70
2018-04-17T18:32:55.018Z,16.40
2018-04-17T18:35:22.703Z,16.40
2018-04-17T18:37:50.333Z,16.40
2018-04-17T18:40:17.997Z,16.30
2018-04-17T18:42:45.649Z,16.20
2018-04-17T18:45:13.287Z,16.10
2018-04-17T18:47:40.949Z,16.00
2018-04-17T18:50:08.593Z,15.90
2018-04-17T18:52:37.326Z,15.80
2018-04-17T18:55:05.512Z,15.80
2018-04-17T18:57:33.376Z,15.70
2018-04-17T19:00:01.003Z,15.70
2018-04-17T19:02:28.912Z,15.60
2018-04-17T19:05:11.548Z,15.50
2018-04-17T19:07:39.429Z,15.50
2018-04-17T19:10:11.081Z,15.40
2018-04-17T19:12:39.250Z,15.30
2018-04-17T19:15:06.938Z,15.30
2018-04-17T19:20:29.182Z,15.10
2018-04-17T19:22:57.603Z,15.10
2018-04-17T19:28:20.498Z,15.00
2018-04-17T19:30:48.273Z,14.90
2018-04-17T19:33:15.931Z,14.90
2018-04-17T19:35:43.888Z,14.80
2018-04-17T19:38:11.654Z,14.70
2018-04-17T19:40:39.389Z,14.70
2018-04-17T19:43:07.094Z,14.60
2018-04-17T19:48:49.162Z,14.50
2018-04-17T19:51:17.263Z,14.40
2018-04-17T19:53:45.825Z,14.30
2018-04-17T19:56:13.478Z,14.30
2018-04-17T19:58:41.093Z,14.20
2018-04-17T20:01:09.165Z,14.10
2018-04-17T20:03:36.793Z,14.10
2018-04-17T20:06:04.439Z,14.10
2018-04-17T20:08:32.243Z,14.00
2018-04-17T20:10:59.912Z,13.90
2018-04-17T20:13:27.641Z,13.80
2018-04-17T20:15:55.402Z,13.80
2018-04-17T20:18:23.070Z,13.80
2018-04-17T20:20:50.691Z,13.70
2018-04-17T20:23:18.386Z,13.70
2018-04-17T20:25:46.018Z,13.60
2018-04-17T20:28:14.534Z,13.50
2018-04-17T20:30:42.176Z,13.50
2018-04-17T20:33:09.813Z,13.40
2018-04-17T20:35:38.233Z,13.30
2018-04-17T20:38:06.115Z,13.30
2018-04-17T20:40:34.559Z,13.20
2018-04-17T20:43:02.231Z,13.20
2018-04-17T20:45:29.886Z,13.20
2018-04-17T20:47:57.494Z,13.20
2018-04-17T20:50:25.962Z,13.00
2018-04-17T20:52:53.989Z,13.00
2018-04-17T20:55:22.378Z,12.90
2018-04-17T20:57:50.029Z,12.90
2018-04-17T21:00:17.646Z,12.80
2018-04-17T21:02:45.294Z,12.80
2018-04-17T21:05:12.951Z,12.70
2018-04-17T21:07:40.615Z,12.70
2018-04-17T21:10:08.268Z,12.70
2018-04-17T21:15:30.165Z,12.60
2018-04-17T21:17:57.846Z,12.60
2018-04-17T21:20:25.666Z,12.50
2018-04-17T21:22:53.580Z,12.40
2018-04-17T21:25:21.376Z,12.40
2018-04-17T21:27:49.142Z,12.40
2018-04-17T21:30:16.854Z,12.40
2018-04-17T21:32:44.768Z,12.40
2018-04-17T21:35:12.689Z,12.40
2018-04-17T21:37:40.382Z,12.40
2018-04-17T21:40:07.994Z,12.30
2018-04-17T21:42:35.658Z,12.20
2018-04-17T21:45:03.301Z,12.10
2018-04-17T21:47:31.081Z,12.10
2018-04-17T21:49:58.732Z,12.00
2018-04-17T21:52:26.385Z,11.90
2018-04-17T21:54:54.821Z,11.90
2018-04-17T21:57:22.489Z,11.90
2018-04-17T21:59:50.890Z,11.80
2018-04-17T22:02:18.521Z,11.80
2018-04-17T22:04:46.184Z,11.80
2018-04-17T22:07:13.862Z,11.70
2018-04-17T22:09:41.497Z,11.60
2018-04-17T22:12:09.150Z,11.60
2018-04-17T22:14:36.784Z,11.50
2018-04-17T22:17:04.449Z,11.50
2018-04-17T22:19:32.106Z,11.40
2018-04-17T22:21:59.782Z,11.40
2018-04-17T22:24:28.323Z,11.30
2018-04-17T22:26:56.771Z,11.30
2018-04-17T22:29:24.433Z,11.30
2018-04-17T22:31:52.074Z,11.30
2018-04-17T22:34:20.485Z,11.20
2018-04-17T22:36:48.937Z,11.10
2018-04-17T22:39:16.573Z,11.10
2018-04-17T22:41:44.981Z,11.10
2018-04-17T22:44:13.442Z,11.00
2018-04-17T22:46:41.127Z,11.00
2018-04-17T22:49:08.760Z,11.00
2018-04-17T22:51:37.226Z,11.00
2018-04-17T22:54:04.882Z,11.00
2018-04-17T22:56:32.588Z,10.90
2018-04-17T22:59:00.281Z,10.90
2018-04-17T23:01:27.907Z,10.90
2018-04-17T23:03:55.566Z,10.80
2018-04-17T23:06:23.189Z,10.80
2018-04-17T23:08:51.598Z,10.70
2018-04-17T23:11:19.970Z,10.60
2018-04-17T23:13:47.618Z,10.60
2018-04-17T23:16:15.255Z,10.50
2018-04-17T23:18:42.900Z,10.50
2018-04-17T23:21:10.557Z,10.50
2018-04-17T23:23:38.945Z,10.40
2018-04-17T23:26:06.609Z,10.40
2018-04-17T23:28:34.364Z,10.40
2018-04-17T23:31:02.066Z,10.40
2018-04-17T23:33:29.737Z,10.30
2018-04-17T23:35:57.357Z,10.30
2018-04-17T23:38:25.031Z,10.30
2018-04-17T23:40:52.641Z,10.30
2018-04-17T23:43:20.328Z,10.20
2018-04-17T23:45:47.985Z,10.10
2018-04-17T23:48:15.639Z,10.10
2018-04-17T23:50:43.305Z,10.10
2018-04-17T23:53:11.704Z,10.00
2018-04-17T23:55:39.424Z,10.00
2018-04-17T23:58:07.077Z,9.90
